sensor_id;sensor_type;location;lat;lon;timestamp;P1;durP1;ratioP1;P2;durP2;ratioP2
39050;SDS011;24805;55.852;37.644;2023-08-01T00:02:04;19.63;;;7.00;;
39050;SDS011;24805;55.852;37.644;2023-08-01T00:07:07;13.60;;;7.07;;
39050;SDS011;24805;55.852;37.644;2023-08-01T00:12:09;15.05;;;9.68;;
39050;SDS011;24805;55.852;37.644;2023-08-01T00:17:11;13.57;;;6.72;;
39050;SDS011;24805;55.852;37.644;2023-08-01T00:22:13;19.05;;;8.18;;
39050;SDS011;24805;55.852;37.644;2023-08-01T00:27:16;20.60;;;7.38;;
39050;SDS011;24805;55.852;37.644;2023-08-01T00:32:18;16.88;;;7.13;;
39050;SDS011;24805;55.852;37.644;2023-08-01T00:37:20;16.85;;;6.82;;
39050;SDS011;24805;55.852;37.644;2023-08-01T00:42:22;13.80;;;6.25;;
39050;SDS011;24805;55.852;37.644;2023-08-01T00:47:24;23.55;;;6.63;;
39050;SDS011;24805;55.852;37.644;2023-08-01T00:52:26;15.32;;;7.70;;
39050;SDS011;24805;55.852;37.644;2023-08-01T00:57:29;18.23;;;6.50;;
39050;SDS011;24805;55.852;37.644;2023-08-01T01:02:32;16.00;;;7.38;;
39050;SDS011;24805;55.852;37.644;2023-08-01T01:07:34;18.90;;;7.82;;
39050;SDS011;24805;55.852;37.644;2023-08-01T01:12:37;17.38;;;7.47;;
39050;SDS011;24805;55.852;37.644;2023-08-01T01:17:40;21.73;;;8.98;;
39050;SDS011;24805;55.852;37.644;2023-08-01T01:22:42;32.42;;;11.10;;
39050;SDS011;24805;55.852;37.644;2023-08-01T01:27:46;25.23;;;9.52;;
39050;SDS011;24805;55.852;37.644;2023-08-01T01:32:50;20.65;;;9.23;;
39050;SDS011;24805;55.852;37.644;2023-08-01T01:37:53;19.08;;;8.32;;
39050;SDS011;24805;55.852;37.644;2023-08-01T01:42:56;24.13;;;9.00;;
39050;SDS011;24805;55.852;37.644;2023-08-01T01:47:58;18.90;;;7.97;;
39050;SDS011;24805;55.852;37.644;2023-08-01T01:53:00;15.60;;;7.38;;
39050;SDS011;24805;55.852;37.644;2023-08-01T01:58:03;16.77;;;7.47;;
39050;SDS011;24805;55.852;37.644;2023-08-01T02:03:05;17.25;;;7.30;;
39050;SDS011;24805;55.852;37.644;2023-08-01T02:08:09;21.42;;;9.23;;
39050;SDS011;24805;55.852;37.644;2023-08-01T02:13:11;21.80;;;8.95;;
39050;SDS011;24805;55.852;37.644;2023-08-01T02:18:13;20.88;;;7.78;;
39050;SDS011;24805;55.852;37.644;2023-08-01T02:23:15;21.30;;;8.60;;
39050;SDS011;24805;55.852;37.644;2023-08-01T02:28:18;21.38;;;9.18;;
39050;SDS011;24805;55.852;37.644;2023-08-01T02:33:20;21.85;;;9.25;;
39050;SDS011;24805;55.852;37.644;2023-08-01T02:38:22;22.63;;;9.45;;
39050;SDS011;24805;55.852;37.644;2023-08-01T02:43:25;19.17;;;9.57;;
39050;SDS011;24805;55.852;37.644;2023-08-01T02:48:27;22.65;;;10.40;;
39050;SDS011;24805;55.852;37.644;2023-08-01T02:53:29;20.90;;;10.57;;
39050;SDS011;24805;55.852;37.644;2023-08-01T02:58:31;29.85;;;13.38;;
39050;SDS011;24805;55.852;37.644;2023-08-01T03:03:34;19.77;;;9.40;;
39050;SDS011;24805;55.852;37.644;2023-08-01T03:08:38;26.00;;;10.98;;
39050;SDS011;24805;55.852;37.644;2023-08-01T03:13:40;23.27;;;10.18;;
39050;SDS011;24805;55.852;37.644;2023-08-01T03:18:42;18.15;;;9.43;;
39050;SDS011;24805;55.852;37.644;2023-08-01T03:23:44;22.92;;;9.43;;
39050;SDS011;24805;55.852;37.644;2023-08-01T03:28:47;16.90;;;9.27;;
39050;SDS011;24805;55.852;37.644;2023-08-01T03:33:49;20.77;;;10.25;;
39050;SDS011;24805;55.852;37.644;2023-08-01T03:38:51;26.63;;;10.23;;
39050;SDS011;24805;55.852;37.644;2023-08-01T03:43:53;23.15;;;10.77;;
39050;SDS011;24805;55.852;37.644;2023-08-01T03:48:56;29.75;;;12.05;;
39050;SDS011;24805;55.852;37.644;2023-08-01T03:53:58;27.25;;;11.27;;
39050;SDS011;24805;55.852;37.644;2023-08-01T03:59:14;30.02;;;12.15;;
39050;SDS011;24805;55.852;37.644;2023-08-01T04:04:17;28.98;;;12.50;;
39050;SDS011;24805;55.852;37.644;2023-08-01T04:09:19;25.83;;;13.60;;
39050;SDS011;24805;55.852;37.644;2023-08-01T04:14:21;31.83;;;11.73;;
39050;SDS011;24805;55.852;37.644;2023-08-01T04:19:23;23.00;;;12.05;;
39050;SDS011;24805;55.852;37.644;2023-08-01T04:24:26;26.88;;;11.70;;
39050;SDS011;24805;55.852;37.644;2023-08-01T04:29:29;33.30;;;13.52;;
39050;SDS011;24805;55.852;37.644;2023-08-01T04:34:32;24.35;;;12.00;;
39050;SDS011;24805;55.852;37.644;2023-08-01T04:39:34;27.13;;;11.93;;
39050;SDS011;24805;55.852;37.644;2023-08-01T04:44:37;25.13;;;10.30;;
39050;SDS011;24805;55.852;37.644;2023-08-01T04:49:39;16.98;;;8.43;;
39050;SDS011;24805;55.852;37.644;2023-08-01T04:54:41;13.82;;;8.30;;
39050;SDS011;24805;55.852;37.644;2023-08-01T04:59:43;12.30;;;7.63;;
39050;SDS011;24805;55.852;37.644;2023-08-01T05:04:45;13.23;;;6.97;;
39050;SDS011;24805;55.852;37.644;2023-08-01T05:09:48;15.85;;;7.15;;
39050;SDS011;24805;55.852;37.644;2023-08-01T05:14:50;10.60;;;6.78;;
39050;SDS011;24805;55.852;37.644;2023-08-01T05:19:52;13.93;;;6.50;;
39050;SDS011;24805;55.852;37.644;2023-08-01T05:24:54;10.15;;;5.68;;
39050;SDS011;24805;55.852;37.644;2023-08-01T05:29:57;10.63;;;5.13;;
39050;SDS011;24805;55.852;37.644;2023-08-01T05:34:59;9.88;;;5.03;;
39050;SDS011;24805;55.852;37.644;2023-08-01T05:40:04;9.00;;;5.07;;
39050;SDS011;24805;55.852;37.644;2023-08-01T05:45:07;12.55;;;5.10;;
39050;SDS011;24805;55.852;37.644;2023-08-01T05:50:10;7.80;;;3.70;;
39050;SDS011;24805;55.852;37.644;2023-08-01T05:55:12;9.38;;;4.25;;
39050;SDS011;24805;55.852;37.644;2023-08-01T06:00:15;5.85;;;2.90;;
39050;SDS011;24805;55.852;37.644;2023-08-01T06:05:18;4.57;;;2.22;;
39050;SDS011;24805;55.852;37.644;2023-08-01T06:10:20;7.30;;;3.53;;
39050;SDS011;24805;55.852;37.644;2023-08-01T06:15:24;7.03;;;2.78;;
39050;SDS011;24805;55.852;37.644;2023-08-01T06:20:26;8.23;;;3.90;;
39050;SDS011;24805;55.852;37.644;2023-08-01T06:25:28;7.18;;;2.75;;
39050;SDS011;24805;55.852;37.644;2023-08-01T06:30:30;5.00;;;2.50;;
39050;SDS011;24805;55.852;37.644;2023-08-01T06:35:33;7.20;;;2.88;;
39050;SDS011;24805;55.852;37.644;2023-08-01T06:40:35;6.05;;;2.53;;
39050;SDS011;24805;55.852;37.644;2023-08-01T06:45:37;6.70;;;3.22;;
39050;SDS011;24805;55.852;37.644;2023-08-01T06:50:39;7.70;;;4.72;;
39050;SDS011;24805;55.852;37.644;2023-08-01T06:55:42;17.85;;;15.35;;
39050;SDS011;24805;55.852;37.644;2023-08-01T07:00:44;7.15;;;3.80;;
39050;SDS011;24805;55.852;37.644;2023-08-01T07:05:46;11.45;;;4.40;;
39050;SDS011;24805;55.852;37.644;2023-08-01T07:10:48;11.57;;;5.05;;
39050;SDS011;24805;55.852;37.644;2023-08-01T07:15:51;9.60;;;4.65;;
39050;SDS011;24805;55.852;37.644;2023-08-01T07:21:03;10.88;;;4.30;;
39050;SDS011;24805;55.852;37.644;2023-08-01T07:26:06;12.48;;;10.93;;
39050;SDS011;24805;55.852;37.644;2023-08-01T07:31:10;9.75;;;4.55;;
39050;SDS011;24805;55.852;37.644;2023-08-01T07:36:12;8.38;;;4.40;;
39050;SDS011;24805;55.852;37.644;2023-08-01T07:41:14;4.25;;;3.60;;
39050;SDS011;24805;55.852;37.644;2023-08-01T07:46:16;6.85;;;2.95;;
39050;SDS011;24805;55.852;37.644;2023-08-01T07:51:18;5.93;;;2.80;;
39050;SDS011;24805;55.852;37.644;2023-08-01T07:56:21;8.48;;;3.00;;
39050;SDS011;24805;55.852;37.644;2023-08-01T08:01:23;4.18;;;1.92;;
39050;SDS011;24805;55.852;37.644;2023-08-01T08:06:25;6.13;;;2.35;;
39050;SDS011;24805;55.852;37.644;2023-08-01T08:11:28;4.43;;;2.40;;
39050;SDS011;24805;55.852;37.644;2023-08-01T08:16:30;3.20;;;2.05;;
39050;SDS011;24805;55.852;37.644;2023-08-01T08:21:33;5.30;;;2.17;;
39050;SDS011;24805;55.852;37.644;2023-08-01T08:26:35;4.70;;;2.20;;
39050;SDS011;24805;55.852;37.644;2023-08-01T08:31:40;6.03;;;2.13;;
39050;SDS011;24805;55.852;37.644;2023-08-01T08:36:42;6.32;;;2.58;;
39050;SDS011;24805;55.852;37.644;2023-08-01T08:41:46;7.60;;;1.90;;
39050;SDS011;24805;55.852;37.644;2023-08-01T08:46:53;5.83;;;1.90;;
39050;SDS011;24805;55.852;37.644;2023-08-01T08:51:57;3.88;;;2.05;;
39050;SDS011;24805;55.852;37.644;2023-08-01T08:56:59;8.18;;;2.00;;
39050;SDS011;24805;55.852;37.644;2023-08-01T09:02:02;7.60;;;2.30;;
39050;SDS011;24805;55.852;37.644;2023-08-01T09:07:07;6.05;;;1.75;;
39050;SDS011;24805;55.852;37.644;2023-08-01T09:12:12;2.80;;;1.52;;
39050;SDS011;24805;55.852;37.644;2023-08-01T09:17:15;3.75;;;1.90;;
39050;SDS011;24805;55.852;37.644;2023-08-01T09:22:20;4.50;;;1.80;;
39050;SDS011;24805;55.852;37.644;2023-08-01T09:27:22;5.65;;;1.95;;
39050;SDS011;24805;55.852;37.644;2023-08-01T09:32:25;2.72;;;1.73;;
39050;SDS011;24805;55.852;37.644;2023-08-01T09:37:37;5.82;;;2.08;;
39050;SDS011;24805;55.852;37.644;2023-08-01T09:42:41;5.45;;;1.85;;
39050;SDS011;24805;55.852;37.644;2023-08-01T09:47:45;5.38;;;1.70;;
39050;SDS011;24805;55.852;37.644;2023-08-01T09:52:51;3.50;;;1.60;;
39050;SDS011;24805;55.852;37.644;2023-08-01T09:57:56;2.28;;;1.65;;
39050;SDS011;24805;55.852;37.644;2023-08-01T10:03:00;3.13;;;1.38;;
39050;SDS011;24805;55.852;37.644;2023-08-01T10:08:03;2.92;;;1.20;;
39050;SDS011;24805;55.852;37.644;2023-08-01T10:13:06;4.03;;;1.50;;
39050;SDS011;24805;55.852;37.644;2023-08-01T10:18:09;6.45;;;1.63;;
39050;SDS011;24805;55.852;37.644;2023-08-01T10:23:12;2.42;;;1.35;;
39050;SDS011;24805;55.852;37.644;2023-08-01T10:28:15;3.17;;;1.60;;
39050;SDS011;24805;55.852;37.644;2023-08-01T10:33:18;4.57;;;2.03;;
39050;SDS011;24805;55.852;37.644;2023-08-01T10:38:20;2.45;;;1.30;;
39050;SDS011;24805;55.852;37.644;2023-08-01T10:43:22;4.13;;;1.42;;
39050;SDS011;24805;55.852;37.644;2023-08-01T10:48:26;3.40;;;1.55;;
39050;SDS011;24805;55.852;37.644;2023-08-01T10:53:37;2.58;;;1.95;;
39050;SDS011;24805;55.852;37.644;2023-08-01T10:58:43;5.78;;;2.35;;
39050;SDS011;24805;55.852;37.644;2023-08-01T11:03:46;5.75;;;2.30;;
39050;SDS011;24805;55.852;37.644;2023-08-01T11:08:48;6.05;;;2.63;;
39050;SDS011;24805;55.852;37.644;2023-08-01T11:13:52;5.95;;;2.97;;
39050;SDS011;24805;55.852;37.644;2023-08-01T11:18:55;6.40;;;2.60;;
39050;SDS011;24805;55.852;37.644;2023-08-01T11:23:58;6.22;;;2.50;;
39050;SDS011;24805;55.852;37.644;2023-08-01T11:29:01;6.38;;;2.20;;
39050;SDS011;24805;55.852;37.644;2023-08-01T11:34:05;5.60;;;2.10;;
39050;SDS011;24805;55.852;37.644;2023-08-01T11:39:07;5.53;;;2.60;;
39050;SDS011;24805;55.852;37.644;2023-08-01T11:44:10;4.57;;;2.40;;
39050;SDS011;24805;55.852;37.644;2023-08-01T11:49:13;4.43;;;2.30;;
39050;SDS011;24805;55.852;37.644;2023-08-01T11:54:16;5.03;;;3.28;;
39050;SDS011;24805;55.852;37.644;2023-08-01T11:59:19;5.63;;;2.35;;
39050;SDS011;24805;55.852;37.644;2023-08-01T12:04:25;5.45;;;2.25;;
39050;SDS011;24805;55.852;37.644;2023-08-01T12:09:31;4.90;;;2.05;;
39050;SDS011;24805;55.852;37.644;2023-08-01T12:14:39;3.90;;;1.73;;
39050;SDS011;24805;55.852;37.644;2023-08-01T12:19:42;5.10;;;2.22;;
39050;SDS011;24805;55.852;37.644;2023-08-01T12:24:45;4.88;;;1.58;;
39050;SDS011;24805;55.852;37.644;2023-08-01T12:29:47;6.97;;;3.97;;
39050;SDS011;24805;55.852;37.644;2023-08-01T12:34:49;4.75;;;2.10;;
39050;SDS011;24805;55.852;37.644;2023-08-01T12:39:51;7.03;;;2.15;;
39050;SDS011;24805;55.852;37.644;2023-08-01T12:44:55;5.03;;;2.00;;
39050;SDS011;24805;55.852;37.644;2023-08-01T12:49:57;5.38;;;1.85;;
39050;SDS011;24805;55.852;37.644;2023-08-01T12:54:59;3.30;;;2.28;;
39050;SDS011;24805;55.852;37.644;2023-08-01T13:00:04;7.35;;;2.97;;
39050;SDS011;24805;55.852;37.644;2023-08-01T13:05:07;10.52;;;3.90;;
39050;SDS011;24805;55.852;37.644;2023-08-01T13:10:09;6.88;;;2.95;;
39050;SDS011;24805;55.852;37.644;2023-08-01T13:15:12;5.78;;;3.03;;
39050;SDS011;24805;55.852;37.644;2023-08-01T13:20:19;10.38;;;2.80;;
39050;SDS011;24805;55.852;37.644;2023-08-01T13:25:21;7.22;;;2.90;;
39050;SDS011;24805;55.852;37.644;2023-08-01T13:30:23;6.57;;;2.40;;
39050;SDS011;24805;55.852;37.644;2023-08-01T13:35:26;6.90;;;2.67;;
39050;SDS011;24805;55.852;37.644;2023-08-01T13:40:28;5.95;;;2.80;;
39050;SDS011;24805;55.852;37.644;2023-08-01T13:45:30;9.45;;;3.25;;
39050;SDS011;24805;55.852;37.644;2023-08-01T13:50:33;10.45;;;3.03;;
39050;SDS011;24805;55.852;37.644;2023-08-01T13:55:36;6.47;;;3.10;;
39050;SDS011;24805;55.852;37.644;2023-08-01T14:00:38;3.22;;;2.25;;
39050;SDS011;24805;55.852;37.644;2023-08-01T14:05:40;4.85;;;2.08;;
39050;SDS011;24805;55.852;37.644;2023-08-01T14:10:42;6.85;;;3.00;;
39050;SDS011;24805;55.852;37.644;2023-08-01T14:15:45;7.90;;;3.53;;
39050;SDS011;24805;55.852;37.644;2023-08-01T14:20:47;7.32;;;2.40;;
39050;SDS011;24805;55.852;37.644;2023-08-01T14:25:49;4.75;;;2.20;;
39050;SDS011;24805;55.852;37.644;2023-08-01T14:30:52;5.70;;;3.15;;
39050;SDS011;24805;55.852;37.644;2023-08-01T14:35:54;6.43;;;3.20;;
39050;SDS011;24805;55.852;37.644;2023-08-01T14:40:56;7.93;;;3.00;;
39050;SDS011;24805;55.852;37.644;2023-08-01T14:46:01;5.95;;;3.10;;
39050;SDS011;24805;55.852;37.644;2023-08-01T14:51:05;8.15;;;3.13;;
39050;SDS011;24805;55.852;37.644;2023-08-01T14:56:09;10.45;;;2.88;;
39050;SDS011;24805;55.852;37.644;2023-08-01T15:01:16;9.48;;;3.13;;
39050;SDS011;24805;55.852;37.644;2023-08-01T15:06:19;5.18;;;2.72;;
39050;SDS011;24805;55.852;37.644;2023-08-01T15:11:22;4.65;;;2.50;;
39050;SDS011;24805;55.852;37.644;2023-08-01T15:16:24;4.88;;;2.75;;
39050;SDS011;24805;55.852;37.644;2023-08-01T15:21:27;5.32;;;2.78;;
39050;SDS011;24805;55.852;37.644;2023-08-01T15:26:30;5.75;;;2.60;;
39050;SDS011;24805;55.852;37.644;2023-08-01T15:31:32;6.00;;;2.90;;
39050;SDS011;24805;55.852;37.644;2023-08-01T15:36:36;7.95;;;2.80;;
39050;SDS011;24805;55.852;37.644;2023-08-01T15:41:40;7.65;;;3.15;;
39050;SDS011;24805;55.852;37.644;2023-08-01T15:46:42;9.07;;;3.22;;
39050;SDS011;24805;55.852;37.644;2023-08-01T15:51:45;6.68;;;2.83;;
39050;SDS011;24805;55.852;37.644;2023-08-01T15:56:47;6.55;;;3.50;;
39050;SDS011;24805;55.852;37.644;2023-08-01T16:01:50;4.47;;;2.75;;
39050;SDS011;24805;55.852;37.644;2023-08-01T16:06:52;8.07;;;3.22;;
39050;SDS011;24805;55.852;37.644;2023-08-01T16:11:54;7.47;;;4.80;;
39050;SDS011;24805;55.852;37.644;2023-08-01T16:16:57;5.35;;;3.63;;
39050;SDS011;24805;55.852;37.644;2023-08-01T16:21:59;5.50;;;3.20;;
39050;SDS011;24805;55.852;37.644;2023-08-01T16:27:01;6.43;;;3.70;;
39050;SDS011;24805;55.852;37.644;2023-08-01T16:32:04;10.45;;;2.53;;
39050;SDS011;24805;55.852;37.644;2023-08-01T16:37:07;6.15;;;2.78;;
39050;SDS011;24805;55.852;37.644;2023-08-01T16:42:09;8.52;;;2.95;;
39050;SDS011;24805;55.852;37.644;2023-08-01T16:47:13;7.63;;;3.10;;
39050;SDS011;24805;55.852;37.644;2023-08-01T16:52:35;9.95;;;2.70;;
39050;SDS011;24805;55.852;37.644;2023-08-01T16:57:38;5.88;;;2.55;;
39050;SDS011;24805;55.852;37.644;2023-08-01T17:02:40;6.85;;;2.83;;
39050;SDS011;24805;55.852;37.644;2023-08-01T17:07:42;7.93;;;2.95;;
39050;SDS011;24805;55.852;37.644;2023-08-01T17:12:45;6.97;;;2.80;;
39050;SDS011;24805;55.852;37.644;2023-08-01T17:17:47;6.57;;;3.15;;
39050;SDS011;24805;55.852;37.644;2023-08-01T17:22:49;8.93;;;2.72;;
39050;SDS011;24805;55.852;37.644;2023-08-01T17:27:51;7.60;;;2.78;;
39050;SDS011;24805;55.852;37.644;2023-08-01T17:32:55;5.68;;;2.83;;
39050;SDS011;24805;55.852;37.644;2023-08-01T17:37:57;3.80;;;2.90;;
39050;SDS011;24805;55.852;37.644;2023-08-01T17:43:00;6.30;;;3.05;;
39050;SDS011;24805;55.852;37.644;2023-08-01T17:48:03;5.88;;;3.00;;
39050;SDS011;24805;55.852;37.644;2023-08-01T17:53:06;8.30;;;2.95;;
39050;SDS011;24805;55.852;37.644;2023-08-01T17:58:08;8.88;;;3.58;;
39050;SDS011;24805;55.852;37.644;2023-08-01T18:03:11;5.25;;;3.03;;
39050;SDS011;24805;55.852;37.644;2023-08-01T18:08:13;8.73;;;3.75;;
39050;SDS011;24805;55.852;37.644;2023-08-01T18:13:16;7.15;;;3.75;;
39050;SDS011;24805;55.852;37.644;2023-08-01T18:18:18;5.13;;;3.30;;
39050;SDS011;24805;55.852;37.644;2023-08-01T18:23:21;6.88;;;3.22;;
39050;SDS011;24805;55.852;37.644;2023-08-01T18:28:23;6.40;;;3.53;;
39050;SDS011;24805;55.852;37.644;2023-08-01T18:33:25;7.68;;;3.97;;
39050;SDS011;24805;55.852;37.644;2023-08-01T18:38:29;10.13;;;3.50;;
39050;SDS011;24805;55.852;37.644;2023-08-01T18:43:32;8.40;;;3.75;;
39050;SDS011;24805;55.852;37.644;2023-08-01T18:48:35;9.23;;;3.90;;
39050;SDS011;24805;55.852;37.644;2023-08-01T18:53:38;8.95;;;4.85;;
39050;SDS011;24805;55.852;37.644;2023-08-01T18:58:40;6.70;;;4.07;;
39050;SDS011;24805;55.852;37.644;2023-08-01T19:03:43;9.25;;;3.50;;
39050;SDS011;24805;55.852;37.644;2023-08-01T19:08:47;8.60;;;4.35;;
39050;SDS011;24805;55.852;37.644;2023-08-01T19:13:49;9.10;;;4.25;;
39050;SDS011;24805;55.852;37.644;2023-08-01T19:18:52;9.30;;;4.18;;
39050;SDS011;24805;55.852;37.644;2023-08-01T19:23:54;6.95;;;4.63;;
39050;SDS011;24805;55.852;37.644;2023-08-01T19:28:56;13.18;;;4.43;;
39050;SDS011;24805;55.852;37.644;2023-08-01T19:33:58;8.10;;;4.75;;
39050;SDS011;24805;55.852;37.644;2023-08-01T19:39:04;9.57;;;4.70;;
39050;SDS011;24805;55.852;37.644;2023-08-01T19:44:06;7.90;;;4.65;;
39050;SDS011;24805;55.852;37.644;2023-08-01T19:49:08;11.43;;;7.35;;
39050;SDS011;24805;55.852;37.644;2023-08-01T19:54:11;8.43;;;6.00;;
39050;SDS011;24805;55.852;37.644;2023-08-01T19:59:13;6.53;;;4.80;;
39050;SDS011;24805;55.852;37.644;2023-08-01T20:04:16;9.35;;;4.72;;
39050;SDS011;24805;55.852;37.644;2023-08-01T20:09:18;6.78;;;5.07;;
39050;SDS011;24805;55.852;37.644;2023-08-01T20:14:20;9.98;;;4.43;;
39050;SDS011;24805;55.852;37.644;2023-08-01T20:19:22;8.50;;;4.95;;
39050;SDS011;24805;55.852;37.644;2023-08-01T20:24:26;8.55;;;5.65;;
39050;SDS011;24805;55.852;37.644;2023-08-01T20:29:28;11.07;;;5.97;;
39050;SDS011;24805;55.852;37.644;2023-08-01T20:34:30;8.15;;;5.13;;
39050;SDS011;24805;55.852;37.644;2023-08-01T20:39:33;9.43;;;5.65;;
39050;SDS011;24805;55.852;37.644;2023-08-01T20:44:35;10.15;;;5.68;;
39050;SDS011;24805;55.852;37.644;2023-08-01T20:49:38;12.73;;;5.15;;
39050;SDS011;24805;55.852;37.644;2023-08-01T20:54:40;8.38;;;5.85;;
39050;SDS011;24805;55.852;37.644;2023-08-01T20:59:42;12.20;;;5.55;;
39050;SDS011;24805;55.852;37.644;2023-08-01T21:04:45;8.57;;;6.00;;
39050;SDS011;24805;55.852;37.644;2023-08-01T21:09:47;10.52;;;6.05;;
39050;SDS011;24805;55.852;37.644;2023-08-01T21:14:52;9.43;;;6.65;;
39050;SDS011;24805;55.852;37.644;2023-08-01T21:19:54;10.10;;;7.13;;
39050;SDS011;24805;55.852;37.644;2023-08-01T21:24:57;17.05;;;8.68;;
39050;SDS011;24805;55.852;37.644;2023-08-01T21:29:59;9.90;;;7.53;;
39050;SDS011;24805;55.852;37.644;2023-08-01T21:35:04;17.45;;;11.63;;
39050;SDS011;24805;55.852;37.644;2023-08-01T21:40:07;18.40;;;10.55;;
39050;SDS011;24805;55.852;37.644;2023-08-01T21:45:09;15.95;;;10.57;;
39050;SDS011;24805;55.852;37.644;2023-08-01T21:50:12;15.50;;;10.95;;
39050;SDS011;24805;55.852;37.644;2023-08-01T21:55:14;19.05;;;14.10;;
39050;SDS011;24805;55.852;37.644;2023-08-01T22:00:16;21.70;;;12.38;;
39050;SDS011;24805;55.852;37.644;2023-08-01T22:05:19;14.77;;;10.30;;
39050;SDS011;24805;55.852;37.644;2023-08-01T22:10:21;13.30;;;9.52;;
39050;SDS011;24805;55.852;37.644;2023-08-01T22:15:27;18.67;;;10.73;;
39050;SDS011;24805;55.852;37.644;2023-08-01T22:20:30;16.40;;;10.57;;
39050;SDS011;24805;55.852;37.644;2023-08-01T22:25:32;15.65;;;9.95;;
39050;SDS011;24805;55.852;37.644;2023-08-01T22:30:35;18.02;;;10.18;;
39050;SDS011;24805;55.852;37.644;2023-08-01T22:35:37;12.85;;;9.82;;
39050;SDS011;24805;55.852;37.644;2023-08-01T22:40:39;16.67;;;10.38;;
39050;SDS011;24805;55.852;37.644;2023-08-01T22:45:41;15.85;;;9.70;;
39050;SDS011;24805;55.852;37.644;2023-08-01T22:50:43;18.13;;;9.65;;
39050;SDS011;24805;55.852;37.644;2023-08-01T22:55:47;11.85;;;8.85;;
39050;SDS011;24805;55.852;37.644;2023-08-01T23:00:50;15.95;;;8.82;;
39050;SDS011;24805;55.852;37.644;2023-08-01T23:05:52;16.23;;;11.43;;
39050;SDS011;24805;55.852;37.644;2023-08-01T23:10:54;16.05;;;10.00;;
39050;SDS011;24805;55.852;37.644;2023-08-01T23:15:57;13.32;;;9.18;;
39050;SDS011;24805;55.852;37.644;2023-08-01T23:21:00;16.65;;;10.65;;
39050;SDS011;24805;55.852;37.644;2023-08-01T23:31:11;20.52;;;12.15;;
39050;SDS011;24805;55.852;37.644;2023-08-01T23:36:13;16.17;;;10.80;;
39050;SDS011;24805;55.852;37.644;2023-08-01T23:41:16;16.52;;;11.07;;
39050;SDS011;24805;55.852;37.644;2023-08-01T23:46:20;23.48;;;13.13;;
39050;SDS011;24805;55.852;37.644;2023-08-01T23:51:23;20.92;;;11.15;;
39050;SDS011;24805;55.852;37.644;2023-08-01T23:56:25;24.80;;;12.75;;
